EW2353 Weather Reports


Display with metric or nautical units.
time (UTC)temp
F
wind
direction
speed
MPH
gust
MPH
rain 1hr
in
rain 24hr
in
rain mn
in
humidity
%
barometer
mb
20200706120817 76 56 5.0 7.0 0.00 0.00 0.00 85 1014.4
20200706120328 76 57 4.0 7.0 0.00 0.00 0.00 85 1014.3
20200706115821 75 63 5.0 7.0 0.00 0.00 0.00 86 1014.2
20200706115314 75 45 6.0 7.0 0.00 0.00 0.00 86 1014.2
20200706114823 75 54 4.0 7.0 0.00 0.00 0.00 87 1014.3
20200706114316 75 42 4.0 7.0 0.00 0.00 0.00 87 1014.4
20200706113827 75 46 2.0 4.0 0.00 0.00 0.00 88 1014.4
20200706113318 75 27 0.0 2.0 0.00 0.00 0.00 91 1014.3
20200706112826 74 27 1.0 2.0 0.00 0.00 0.00 91 1014.2
20200706112319 73 22 1.0 2.0 0.00 0.00 0.00 91 1014.0
20200706111829 73 39 2.0 3.0 0.00 0.00 0.00 92 1013.9
20200706111321 72 37 1.0 3.0 0.00 0.00 0.00 93 1013.9
20200706110816 72 38 1.0 3.0 0.00 0.00 0.00 93 1014.1
20200706110329 71 17 0.0 1.0 0.00 0.00 0.00 93 1014.1
20200706105818 71 18 0.0 1.0 0.00 0.00 0.00 94 1014.1
20200706105330 71 18 0.0 1.0 0.00 0.00 0.00 94 1014.1
20200706104825 71 18 0.0 2.0 0.00 0.00 0.00 95 1014.1
20200706104311 70 18 0.0 2.0 0.00 0.00 0.00 95 1014.1
20200706103822 70 17 1.0 2.0 0.00 0.00 0.00 96 1014.0
20200706103316 69 15 1.0 2.0 0.00 0.00 0.00 96 1014.0
20200706102812 69 50 0.0 0.0 0.00 0.00 0.00 95 1014.0
20200706102324 69 50 0.0 0.0 0.00 0.00 0.00 95 1013.9
20200706101814 69 50 0.0 0.0 0.00 0.00 0.00 95 1013.8
20200706101327 69 50 0.0 0.0 0.00 0.00 0.00 95 1013.7
20200706100816 69 50 0.0 1.0 0.00 0.00 0.00 95 1013.7
20200706100328 69 50 0.0 1.0 0.00 0.00 0.00 95 1013.8
20200706095817 69 50 0.0 1.0 0.00 0.00 0.00 95 1013.8
20200706095330 69 50 0.0 1.0 0.00 0.00 0.00 95 1013.8
20200706094824 69 50 0.0 0.0 0.00 0.00 0.00 95 1013.7
20200706094316 69 50 0.0 0.0 0.00 0.00 0.00 95 1013.5
20200706093829 69 50 0.0 0.0 0.00 0.00 0.00 95 1013.5
20200706093319 69 50 0.0 0.0 0.00 0.00 0.00 95 1013.4
20200706092831 69 50 0.0 0.0 0.00 0.00 0.00 95 1013.3
20200706092320 69 50 0.0 0.0 0.00 0.00 0.00 95 1013.3
20200706091811 69 50 0.0 0.0 0.00 0.00 0.00 95 1013.3
20200706091322 69 50 0.0 0.0 0.00 0.00 0.00 95 1013.2
20200706090818 69 50 0.0 1.0 0.00 0.00 0.00 95 1013.3
20200706090332 69 50 0.0 1.0 0.00 0.00 0.00 95 1013.2
20200706085817 69 50 0.0 0.0 0.00 0.00 0.00 94 1013.1
20200706085330 69 50 0.0 0.0 0.00 0.00 0.00 94 1013.1
20200706084820 69 50 0.0 1.0 0.00 0.00 0.00 94 1013.2
20200706084313 69 50 0.0 1.0 0.00 0.00 0.00 94 1013.2
20200706083826 69 50 0.0 1.0 0.00 0.00 0.00 94 1013.2
20200706083315 69 50 0.0 0.0 0.00 0.00 0.00 94 1013.1
20200706082825 69 50 0.0 0.0 0.00 0.00 0.00 93 1013.1
20200706082324 70 50 0.0 0.0 0.00 0.00 0.00 93 1013.1
20200706081812 70 50 0.0 0.0 0.00 0.00 0.00 94 1013.1
20200706081326 70 50 0.0 2.0 0.00 0.00 0.00 94 1013.1
20200706080815 70 50 0.0 3.0 0.00 0.00 0.00 93 1013.1
20200706080326 70 44 2.0 3.0 0.00 0.00 0.00 93 1013.1
20200706075817 70 48 0.0 3.0 0.00 0.00 0.00 93 1013.1
20200706075327 70 48 2.0 3.0 0.00 0.00 0.00 93 1013.0
20200706074822 70 99 0.0 1.0 0.00 0.00 0.00 93 1013.0
20200706074333 70 125 0.0 2.0 0.00 0.00 0.00 93 1013.1
20200706073819 70 125 0.0 2.0 0.00 0.00 0.00 93 1013.1
20200706073334 70 129 0.0 0.0 0.00 0.00 0.00 93 1013.1
20200706072821 70 129 0.0 0.0 0.00 0.00 0.00 93 1013.2
20200706072313 70 129 0.0 1.0 0.00 0.00 0.00 93 1013.2
20200706071823 70 129 0.0 1.0 0.00 0.00 0.00 93 1013.2
20200706071313 70 204 0.0 1.0 0.00 0.00 0.00 93 1013.3
20200706070826 70 206 0.0 1.0 0.00 0.00 0.00 92 1013.4
20200706070322 70 206 0.0 1.0 0.00 0.00 0.00 92 1013.4
20200706065812 71 206 0.0 0.0 0.00 0.00 0.00 92 1013.4
20200706065324 71 206 0.0 0.0 0.00 0.00 0.00 91 1013.4
20200706064815 71 206 0.0 0.0 0.00 0.00 0.00 91 1013.5
20200706064325 71 206 0.0 1.0 0.00 0.00 0.00 91 1013.4
20200706063814 72 224 0.0 2.0 0.00 0.00 0.00 91 1013.4
20200706063325 72 215 1.0 9.0 0.00 0.00 0.00 91 1013.3
20200706062816 72 215 5.0 9.0 0.00 0.00 0.00 91 1013.4
20200706062310 72 60 0.0 1.0 0.00 0.00 0.00 89 1013.2
20200706061821 72 60 0.0 1.0 0.00 0.00 0.00 89 1013.2
20200706061314 72 60 0.0 1.0 0.00 0.00 0.00 89 1013.1
20200706060826 72 60 0.0 1.0 0.00 0.00 0.00 90 1013.1
20200706060316 72 60 0.0 1.0 0.00 0.00 0.00 90 1013.2
20200706055822 72 58 0.0 1.0 0.00 0.00 0.00 90 1013.2
20200706055313 72 58 0.0 0.0 0.00 0.00 0.00 90 1013.3
20200706054824 72 58 0.0 0.0 0.00 0.00 0.00 89 1013.3
20200706054318 72 58 0.0 0.0 0.00 0.00 0.00 88 1013.3
20200706053811 73 58 0.0 0.0 0.00 0.00 0.00 88 1013.3
20200706053322 73 59 0.0 0.0 0.00 0.00 0.00 88 1013.3
20200706052813 73 58 0.0 1.0 0.00 0.00 0.00 88 1013.2
20200706052325 73 58 0.0 1.0 0.00 0.00 0.00 89 1013.3
20200706051812 73 59 0.0 0.0 0.00 0.00 0.00 89 1013.3
20200706051331 73 58 0.0 0.0 0.00 0.00 0.00 88 1013.4
20200706050816 73 59 0.0 0.0 0.00 0.00 0.00 88 1013.4
20200706050328 73 59 0.0 0.0 0.00 0.00 0.00 88 1013.4
20200706045823 73 58 0.0 0.0 0.00 0.00 0.00 88 1013.5
20200706045315 73 59 0.0 0.0 0.00 0.00 0.00 88 1013.5
20200706044825 73 58 0.0 0.0 0.00 0.00 0.00 87 1013.5
20200706044340 74 58 0.0 0.0 0.00 0.00 0.00 88 1013.5
20200706043827 74 58 0.0 0.0 0.00 0.00 0.00 87 1013.5
20200706043318 74 58 0.0 0.0 0.00 0.00 0.00 87 1013.4
20200706042830 74 58 0.0 0.0 0.00 0.00 0.00 87 1013.4
20200706042321 74 59 0.0 0.0 0.00 0.00 0.00 86 1013.4
20200706041812 75 59 0.0 0.0 0.00 0.00 0.00 84 1013.4
20200706041327 75 59 0.0 0.0 0.00 0.00 0.00 83 1013.4
20200706040817 75 58 0.0 0.0 0.00 0.00 0.00 81 1013.4
20200706040329 76 59 0.0 0.0 0.00 0.00 0.00 80 1013.4
20200706035818 77 58 0.0 0.0 0.00 0.00 0.00 80 1013.4
20200706035329 77 58 0.0 0.0 0.00 0.00 0.00 78 1013.4
20200706034819 78 58 0.0 1.0 0.00 0.00 0.00 77 1013.3
20200706034329 78 58 0.0 2.0 0.00 0.00 0.00 77 1013.3
20200706033821 78 58 0.0 2.0 0.00 0.00 0.00 77 1013.4
20200706033315 78 58 1.0 2.0 0.00 0.00 0.00 76 1013.3
20200706032829 78 59 0.0 1.0 0.00 0.00 0.00 76 1013.3
20200706032320 78 59 0.0 1.0 0.00 0.00 0.00 76 1013.3
20200706031811 78 59 0.0 2.0 0.00 0.00 0.00 76 1013.3
20200706031324 79 59 1.0 3.0 0.00 0.00 0.00 75 1013.3
20200706030816 79 59 2.0 3.0 0.00 0.00 0.00 74 1013.2
20200706030327 78 53 2.0 3.0 0.00 0.00 0.00 75 1013.2
20200706025821 78 33 0.0 3.0 0.00 0.00 0.00 75 1013.3
20200706025317 79 45 2.0 4.0 0.00 0.00 0.00 74 1013.2
20200706024827 79 32 2.0 4.0 0.00 0.00 0.00 74 1013.3
20200706024319 79 45 2.0 5.0 0.00 0.00 0.00 73 1013.3
20200706023810 80 59 3.0 9.0 0.00 0.00 0.00 72 1013.3
20200706023322 79 53 3.0 9.0 0.00 0.00 0.00 72 1013.2
20200706022812 79 37 3.0 5.0 0.00 0.00 0.00 74 1013.2
20200706022324 80 44 3.0 6.0 0.00 0.00 0.00 73 1013.3
20200706021815 80 57 4.0 6.0 0.00 0.00 0.00 73 1013.3
20200706021310 80 54 3.0 6.0 0.00 0.00 0.00 72 1013.2
20200706020821 80 44 4.0 8.0 0.00 0.00 0.00 72 1013.2
20200706020313 80 43 5.0 9.0 0.00 0.00 0.00 72 1013.2
20200706015825 80 58 5.0 9.0 0.00 0.00 0.00 73 1013.1
20200706015318 80 55 4.0 11.0 0.00 0.00 0.00 73 1013.2
20200706014828 80 20 5.0 9.0 0.00 0.00 0.00 73 1013.1
20200706014320 81 77 1.0 3.0 0.00 0.00 0.00 70 1012.9
20200706013816 81 160 0.0 2.0 0.00 0.00 0.00 69 1012.8
20200706013330 82 160 0.0 3.0 0.00 0.00 0.00 69 1012.8
20200706012828 82 153 1.0 6.0 0.00 0.00 0.00 68 1012.7
20200706012310 82 143 3.0 7.0 0.00 0.00 0.00 68 1012.6
20200706011822 83 147 4.0 8.0 0.00 0.00 0.00 68 1012.7
20200706011312 83 158 3.0 9.0 0.00 0.00 0.00 66 1012.8
20200706010825 83 133 4.0 9.0 0.00 0.00 0.00 63 1012.8
20200706010316 83 112 4.0 7.0 0.00 0.00 0.00 64 1012.8
20200706005828 83 93 3.0 8.0 0.00 0.00 0.00 67 1012.6
20200706005320 83 86 3.0 7.0 0.00 0.00 0.00 67 1012.6
20200706004814 84 89 2.0 5.0 0.00 0.00 0.00 65 1012.6
20200706004325 84 79 2.0 5.0 0.00 0.00 0.00 63 1012.5
20200706003817 85 73 3.0 5.0 0.00 0.00 0.00 65 1012.5
20200706003329 85 168 0.0 5.0 0.00 0.00 0.00 63 1012.4
20200706002822 86 86 3.0 5.0 0.00 0.00 0.00 66 1012.3
20200706002313 87 86 3.0 6.0 0.00 0.00 0.00 62 1012.3
20200706001824 88 122 3.0 6.0 0.00 0.00 0.00 62 1012.2
20200706001313 88 27 0.0 2.0 0.00 0.00 0.00 63 1012.1
20200706000827 88 9 1.0 3.0 0.00 0.00 0.00 63 1012.0
20200706000320 88 345 2.0 4.0 0.00 0.00 0.00 62 1012.0
20200705235813 89 18 2.0 4.0 0.00 0.00 0.00 60 1011.9
20200705235324 89 329 2.0 4.0 0.00 0.00 0.00 60 1011.8
20200705234815 89 15 1.0 4.0 0.00 0.00 0.00 59 1011.6
20200705234329 89 23 2.0 5.0 0.00 0.00 0.00 59 1011.7
20200705233818 90 354 2.0 6.0 0.00 0.00 0.00 58 1011.7
20200705233328 90 338 3.0 7.0 0.00 0.00 0.00 56 1011.6
20200705232822 90 354 2.0 5.0 0.00 0.00 0.00 55 1011.6
20200705232313 91 355 3.0 4.0 0.00 0.00 0.00 54 1011.6
20200705231824 91 335 2.0 6.0 0.00 0.00 0.00 52 1011.5
20200705231315 91 349 2.0 6.0 0.00 0.00 0.00 51 1011.5
20200705230825 91 338 2.0 5.0 0.00 0.00 0.00 49 1011.6
20200705230316 91 18 3.0 6.0 0.00 0.00 0.00 49 1011.5
20200705225827 91 356 3.0 7.0 0.00 0.00 0.00 48 1011.5
20200705225318 92 8 3.0 7.0 0.00 0.00 0.00 48 1011.4
20200705224811 91 357 2.0 5.0 0.00 0.00 0.00 48 1011.3
20200705224324 91 6 3.0 6.0 0.00 0.00 0.00 49 1011.2
20200705223818 91 18 5.0 8.0 0.00 0.00 0.00 49 1011.3
20200705223325 91 46 4.0 8.0 0.00 0.00 0.00 49 1011.2
20200705222815 92 22 3.0 8.0 0.00 0.00 0.00 51 1011.4
20200705221819 92 355 1.0 5.0 0.00 0.00 0.00 49 1011.4
20200705221330 92 18 2.0 7.0 0.00 0.00 0.00 49 1011.4
20200705220821 92 14 2.0 7.0 0.00 0.00 0.00 49 1011.4
20200705220314 92 63 4.0 7.0 0.00 0.00 0.00 47 1011.4
20200705215822 93 53 3.0 7.0 0.00 0.00 0.00 48 1011.5
20200705215313 93 44 2.0 4.0 0.00 0.00 0.00 45 1011.5
20200705214827 94 79 1.0 4.0 0.00 0.00 0.00 46 1011.5
20200705214316 95 53 2.0 4.0 0.00 0.00 0.00 43 1011.6
20200705213829 95 20 1.0 2.0 0.00 0.00 0.00 43 1011.7
20200705213319 93 262 0.0 4.0 0.00 0.00 0.00 46 1011.7
20200705212810 93 270 1.0 8.0 0.00 0.00 0.00 41 1011.8
20200705212329 94 11 2.0 4.0 0.00 0.00 0.00 44 1011.9
20200705211817 94 19 2.0 3.0 0.00 0.00 0.00 41 1011.8
20200705211329 94 153 1.0 4.0 0.00 0.00 0.00 41 1011.9
20200705210819 94 234 3.0 4.0 0.00 0.00 0.00 41 1011.9
20200705210331 94 208 2.0 4.0 0.00 0.00 0.00 44 1011.9
20200705205815 94 224 1.0 5.0 0.00 0.00 0.00 43 1012.0
20200705205327 94 160 3.0 5.0 0.00 0.00 0.00 39 1012.1
20200705204819 94 213 1.0 3.0 0.00 0.00 0.00 44 1012.1
20200705204314 94 227 1.0 3.0 0.00 0.00 0.00 44 1012.2
20200705203828 93 211 2.0 3.0 0.00 0.00 0.00 43 1012.2
20200705203317 93 273 2.0 3.0 0.00 0.00 0.00 38 1012.3
20200705202823 93 81 0.0 4.0 0.00 0.00 0.00 39 1012.3
20200705202316 92 213 1.0 4.0 0.00 0.00 0.00 40 1012.3
20200705201823 92 76 3.0 7.0 0.00 0.00 0.00 40 1012.4
20200705201315 92 77 5.0 7.0 0.00 0.00 0.00 43 1012.4
20200705200825 93 56 2.0 7.0 0.00 0.00 0.00 47 1012.5
20200705200317 93 68 0.0 5.0 0.00 0.00 0.00 45 1012.4
20200705195811 92 113 1.0 5.0 0.00 0.00 0.00 43 1012.5
20200705195323 92 80 2.0 4.0 0.00 0.00 0.00 45 1012.6
20200705194815 91 83 1.0 5.0 0.00 0.00 0.00 47 1012.7
20200705194325 91 105 3.0 7.0 0.00 0.00 0.00 47 1012.8
20200705193816 93 88 3.0 6.0 0.00 0.00 0.00 44 1012.8
20200705193327 93 102 2.0 7.0 0.00 0.00 0.00 47 1012.8
20200705192816 94 221 2.0 5.0 0.00 0.00 0.00 43 1012.8
20200705192328 94 6 0.0 2.0 0.00 0.00 0.00 46 1012.9
20200705191823 93 333 0.0 2.0 0.00 0.00 0.00 52 1012.9
20200705191314 92 269 0.0 5.0 0.00 0.00 0.00 48 1013.0
20200705190827 92 77 2.0 5.0 0.00 0.00 0.00 46 1013.2
20200705190315 93 66 2.0 5.0 0.00 0.00 0.00 48 1013.2
20200705185827 93 155 0.0 2.0 0.00 0.00 0.00 52 1013.2
20200705185319 93 258 1.0 4.0 0.00 0.00 0.00 50 1013.3
20200705184828 92 40 1.0 4.0 0.00 0.00 0.00 49 1013.2
20200705184320 92 115 0.0 4.0 0.00 0.00 0.00 50 1013.2
20200705183817 91 274 1.0 6.0 0.00 0.00 0.00 50 1013.3
20200705183328 91 69 3.0 6.0 0.00 0.00 0.00 50 1013.4
20200705182820 91 315 1.0 6.0 0.00 0.00 0.00 52 1013.4
20200705182310 92 40 5.0 6.0 0.00 0.00 0.00 49 1013.4
20200705181822 92 79 2.0 5.0 0.00 0.00 0.00 50 1013.5
20200705181312 92 199 1.0 5.0 0.00 0.00 0.00 51 1013.5
20200705180824 91 101 3.0 6.0 0.00 0.00 0.00 54 1013.4
20200705180316 92 80 2.0 5.0 0.00 0.00 0.00 49 1013.5
20200705175812 92 96 2.0 4.0 0.00 0.00 0.00 54 1013.6
20200705175322 91 42 2.0 4.0 0.00 0.00 0.00 49 1013.7
20200705174814 91 219 1.0 4.0 0.00 0.00 0.00 51 1013.7
20200705174324 91 94 1.0 5.0 0.00 0.00 0.00 52 1013.9
20200705173812 91 82 3.0 7.0 0.00 0.00 0.00 52 1014.0
20200705173323 92 141 4.0 7.0 0.00 0.00 0.00 53 1013.9
20200705172816 92 164 2.0 6.0 0.00 0.00 0.00 51 1014.0
20200705172326 91 155 2.0 4.0 0.00 0.00 0.00 51 1014.1
20200705171817 91 147 2.0 7.0 0.00 0.00 0.00 52 1014.0
20200705171312 91 202 3.0 7.0 0.00 0.00 0.00 55 1014.1
20200705170825 91 245 3.0 6.0 0.00 0.00 0.00 53 1014.0
20200705170316 91 148 2.0 4.0 0.00 0.00 0.00 52 1014.1
20200705165828 91 123 2.0 6.0 0.00 0.00 0.00 54 1014.2
20200705165319 90 143 3.0 6.0 0.00 0.00 0.00 54 1014.1
20200705164829 90 77 2.0 5.0 0.00 0.00 0.00 54 1014.2
20200705164321 90 180 2.0 5.0 0.00 0.00 0.00 59 1014.3
20200705163816 89 153 1.0 4.0 0.00 0.00 0.00 63 1014.3
20200705163328 88 148 2.0 6.0 0.00 0.00 0.00 62 1014.4
20200705162818 88 72 3.0 6.0 0.00 0.00 0.00 65 1014.4
20200705162328 88 72 2.0 5.0 0.00 0.00 0.00 62 1014.5
20200705161821 89 43 3.0 5.0 0.00 0.00 0.00 63 1014.4
20200705161313 89 93 2.0 5.0 0.00 0.00 0.00 65 1014.5
20200705160819 89 58 2.0 5.0 0.00 0.00 0.00 62 1014.5
20200705160311 89 89 2.0 4.0 0.00 0.00 0.00 66 1014.5
20200705155823 88 103 2.0 6.0 0.00 0.00 0.00 63 1014.5
20200705155319 88 82 3.0 6.0 0.00 0.00 0.00 64 1014.5
20200705154831 89 73 2.0 4.0 0.00 0.00 0.00 64 1014.5
20200705154320 88 169 2.0 5.0 0.00 0.00 0.00 67 1014.6
20200705153811 88 70 1.0 5.0 0.00 0.00 0.00 67 1014.6
20200705153323 88 152 1.0 4.0 0.00 0.00 0.00 66 1014.6
20200705152814 88 69 1.0 5.0 0.00 0.00 0.00 66 1014.6
20200705152328 88 227 1.0 5.0 0.00 0.00 0.00 67 1014.5
20200705151818 88 101 2.0 4.0 0.00 0.00 0.00 66 1014.4
20200705151312 88 76 1.0 3.0 0.00 0.00 0.00 66 1014.4
20200705150832 88 60 1.0 4.0 0.00 0.00 0.00 66 1014.4
20200705150315 88 31 2.0 4.0 0.00 0.00 0.00 64 1014.4
20200705145825 87 200 0.0 4.0 0.00 0.00 0.00 66 1014.4
20200705145316 87 204 3.0 4.0 0.00 0.00 0.00 66 1014.3
20200705144824 87 174 1.0 3.0 0.00 0.00 0.00 70 1014.4
20200705144313 87 99 1.0 4.0 0.00 0.00 0.00 70 1014.3
20200705143823 87 99 1.0 4.0 0.00 0.00 0.00 68 1014.3
20200705143314 87 203 0.0 2.0 0.00 0.00 0.00 68 1014.4
20200705142831 86 226 1.0 2.0 0.00 0.00 0.00 69 1014.4
20200705142323 86 210 0.0 3.0 0.00 0.00 0.00 72 1014.3
20200705141830 85 221 1.0 3.0 0.00 0.00 0.00 73 1014.3
20200705141323 84 158 1.0 4.0 0.00 0.00 0.00 73 1014.3
20200705140813 84 210 0.0 3.0 0.00 0.00 0.00 73 1014.3
20200705140324 84 199 1.0 4.0 0.00 0.00 0.00 73 1014.4
20200705135822 84 136 2.0 4.0 0.00 0.00 0.00 74 1014.4
20200705135329 83 139 1.0 4.0 0.00 0.00 0.00 74 1014.4
20200705134824 83 140 2.0 4.0 0.00 0.00 0.00 74 1014.3
20200705134316 82 139 2.0 4.0 0.00 0.00 0.00 76 1014.3
20200705133831 82 164 2.0 3.0 0.00 0.00 0.00 75 1014.3
20200705133317 82 179 1.0 3.0 0.00 0.00 0.00 76 1014.3
20200705132829 82 93 2.0 4.0 0.00 0.00 0.00 75 1014.3
20200705132322 82 145 3.0 4.0 0.00 0.00 0.00 74 1014.2
20200705131811 81 127 1.0 4.0 0.00 0.00 0.00 77 1014.2
20200705131322 80 148 1.0 5.0 0.00 0.00 0.00 77 1014.1
20200705130817 80 112 2.0 5.0 0.00 0.00 0.00 78 1014.0
20200705130328 79 148 1.0 4.0 0.00 0.00 0.00 79 1014.1
20200705125818 79 87 1.0 4.0 0.00 0.00 0.00 80 1014.1
20200705125310 78 95 2.0 5.0 0.00 0.00 0.00 79 1014.1
20200705124822 77 84 3.0 6.0 0.00 0.00 0.00 80 1014.1
20200705124314 77 79 3.0 6.0 0.00 0.00 0.00 81 1014.0
20200705123829 77 86 2.0 5.0 0.00 0.00 0.00 81 1014.1
20200705123316 76 53 2.0 6.0 0.00 0.00 0.00 82 1014.1
20200705122811 75 71 4.0 6.0 0.00 0.00 0.00 82 1014.0
20200705122323 75 41 4.0 6.0 0.00 0.00 0.00 82 1014.1
20200705121814 75 51 4.0 7.0 0.00 0.00 0.00 83 1014.0
20200705121326 74 45 5.0 7.0 0.00 0.00 0.00 82 1013.9